Alamo, Nevada
Current Conditions -  °F | °C
As of 12:58 AM on Thursday 23 Oct 2014 (Local Time) from KINS Reporting Station
Clear Clear  
Wind Chill: 13°   Ceiling: Unl
Heat Index: 13°   Visibility: 7mi
Dew Point: -6°   Wind: 2mph
Humidity: 28%   Direction: 180°S
Pressure: 30.1"   Gusts: NA
Location:  37.36°N, 115.16°W
Report Text: KINS 230758Z AUTO 18002KT 7SM CLR 13/M06 A3010 RMK AO2 SLP159 T01261056 402690097
Loading
Personal Weather Stations






























Interactive Weather Map
Tropical Storm Tracking
New forecast layout! Learn more

10-Day Weather Forecast

Advertisements
Track Severe Weather on mobile